Conklin, Michigan
Current Conditions -  °F | °C
As of 2:55 PM on Monday 22 Dec 2014 (Local Time) from KMKG Reporting Station
Light Rain Light Rain  
Wind Chill: 30°   Ceiling: 4800
Heat Index: 38°   Visibility: 7mi
Dew Point: 28°   Wind: 14mph
Humidity: 68%   Direction: 110°ESE
Pressure: 29.86"   Gusts: 22mph
Location:  43.13°N, 85.88°W
Report Text: KMKG 221955Z 11012G19KT 7SM -RA SCT034 OVC048 03/M02 A2986 RMK AO2 RAB49 SLP117 P0000 T00331022
Loading
Personal Weather Stations






























Interactive Weather Map New forecast layout! Learn more

10-Day Weather Forecast

Advertisements
Track Severe Weather on mobile